createdAt,value
2022-10-23T00:02:20.904Z,5.43
2022-10-23T00:05:23.090Z,5.13
2022-10-23T00:08:24.650Z,5.67
2022-10-23T00:11:28.024Z,5.70
2022-10-23T00:14:29.628Z,5.67
2022-10-23T00:17:32.747Z,5.23
2022-10-23T00:20:34.270Z,4.43
2022-10-23T00:23:36.101Z,4.63
2022-10-23T00:26:40.796Z,5.07
2022-10-23T00:29:44.385Z,5.00
2022-10-23T00:32:46.168Z,5.00
2022-10-23T00:35:47.832Z,5.60
2022-10-23T00:38:50.062Z,5.07
2022-10-23T00:41:52.201Z,5.20
2022-10-23T00:44:53.815Z,5.00
2022-10-23T00:47:55.418Z,5.20
2022-10-23T00:50:57.256Z,5.90
2022-10-23T00:54:06.716Z,6.20
2022-10-23T00:57:21.515Z,6.03
2022-10-23T01:00:40.617Z,6.03
2022-10-23T01:03:42.345Z,5.00
2022-10-23T01:06:50.831Z,5.67
2022-10-23T01:10:14.922Z,6.10
2022-10-23T01:13:49.097Z,6.53
2022-10-23T01:17:09.196Z,5.70
2022-10-23T01:20:33.946Z,5.73
2022-10-23T01:23:35.510Z,5.83
2022-10-23T01:26:40.172Z,6.43
2022-10-23T01:30:03.447Z,5.93
2022-10-23T01:33:11.418Z,5.90
2022-10-23T01:36:20.983Z,5.57
2022-10-23T01:39:29.753Z,6.00
2022-10-23T01:42:35.566Z,5.87
2022-10-23T01:45:40.149Z,5.43
2022-10-23T01:48:46.267Z,6.33
2022-10-23T01:51:50.425Z,5.93
2022-10-23T01:54:53.505Z,5.83
2022-10-23T01:57:55.807Z,5.20
2022-10-23T02:01:04.062Z,5.10
2022-10-23T02:04:08.721Z,5.80
2022-10-23T02:07:10.409Z,5.70
2022-10-23T02:10:12.940Z,5.80
2022-10-23T02:13:26.872Z,6.10
2022-10-23T02:17:04.129Z,6.90
2022-10-23T02:20:05.717Z,6.03
2022-10-23T02:23:28.230Z,6.57
2022-10-23T02:26:29.804Z,6.50
2022-10-23T02:29:36.310Z,6.50
2022-10-23T02:32:40.416Z,6.03
2022-10-23T02:35:42.263Z,5.57
2022-10-23T02:38:54.929Z,5.97
2022-10-23T02:42:05.778Z,5.93
2022-10-23T02:45:10.774Z,6.30
2022-10-23T02:48:15.470Z,6.00
2022-10-23T02:51:38.906Z,5.77
2022-10-23T02:54:43.793Z,5.77
2022-10-23T02:57:48.547Z,6.43
2022-10-23T03:00:53.014Z,6.33
2022-10-23T03:03:56.759Z,6.40
2022-10-23T03:06:58.392Z,6.60
2022-10-23T03:09:59.950Z,6.77
2022-10-23T03:13:02.109Z,6.60
2022-10-23T03:16:11.683Z,6.97
2022-10-23T03:19:13.299Z,7.17
2022-10-23T03:22:15.442Z,6.90
2022-10-23T03:25:17.308Z,6.60
2022-10-23T03:28:20.297Z,5.93
2022-10-23T03:31:21.928Z,6.67
2022-10-23T03:34:29.110Z,6.70
2022-10-23T03:37:30.756Z,6.00
2022-10-23T03:40:32.605Z,6.07
2022-10-23T03:43:34.212Z,5.37
2022-10-23T03:46:35.811Z,6.30
2022-10-23T03:49:38.044Z,6.20
2022-10-23T03:52:41.439Z,6.30
2022-10-23T03:55:44.458Z,6.70
2022-10-23T03:58:46.013Z,6.33
2022-10-23T04:01:49.043Z,6.40
2022-10-23T04:04:50.765Z,6.57
2022-10-23T04:07:53.731Z,6.37
2022-10-23T04:10:55.518Z,6.37
2022-10-23T04:14:16.899Z,7.10
2022-10-23T04:17:18.538Z,6.23
2022-10-23T04:20:20.187Z,7.13
2022-10-23T04:23:21.809Z,6.47
2022-10-23T04:26:23.661Z,6.20
2022-10-23T04:29:26.363Z,7.70
2022-10-23T04:32:28.485Z,6.63
2022-10-23T04:35:30.099Z,7.03
2022-10-23T04:38:31.833Z,6.33
2022-10-23T04:41:33.499Z,6.47
2022-10-23T04:44:35.391Z,6.50
2022-10-23T04:47:37.318Z,6.87
2022-10-23T04:50:38.962Z,7.30
2022-10-23T04:53:46.892Z,6.40
2022-10-23T04:57:00.291Z,7.87
2022-10-23T05:00:09.973Z,6.40
2022-10-23T05:03:32.072Z,7.03
2022-10-23T05:06:34.176Z,6.97
2022-10-23T05:09:49.752Z,7.17
2022-10-23T05:12:57.750Z,7.20
2022-10-23T05:16:00.177Z,8.30
2022-10-23T05:19:02.500Z,9.03
2022-10-23T05:22:04.989Z,8.97
2022-10-23T05:25:21.263Z,8.27
2022-10-23T05:28:27.776Z,8.43
2022-10-23T05:31:29.981Z,8.17
2022-10-23T05:34:38.484Z,8.00
2022-10-23T05:37:41.718Z,7.43
2022-10-23T05:40:48.678Z,8.10
2022-10-23T05:43:54.209Z,7.70
2022-10-23T05:47:14.417Z,7.50
2022-10-23T05:50:45.070Z,8.40
2022-10-23T05:53:53.265Z,7.63
2022-10-23T05:57:18.595Z,7.83
2022-10-23T06:00:24.119Z,8.03
2022-10-23T06:03:42.261Z,9.17
2022-10-23T06:06:46.838Z,9.10
2022-10-23T06:09:48.588Z,10.73
2022-10-23T06:12:51.064Z,9.37
2022-10-23T06:15:53.506Z,9.30
2022-10-23T06:18:58.921Z,8.37
2022-10-23T06:22:00.662Z,9.30
2022-10-23T06:25:19.244Z,9.50
2022-10-23T06:28:21.084Z,8.97
2022-10-23T06:31:27.884Z,9.27
2022-10-23T06:34:31.417Z,8.83
2022-10-23T06:37:36.184Z,9.70
2022-10-23T06:40:47.477Z,8.97
2022-10-23T06:43:56.195Z,8.50
2022-10-23T06:47:10.981Z,8.97
2022-10-23T06:50:31.286Z,8.63
2022-10-23T06:53:37.534Z,8.47
2022-10-23T06:56:46.676Z,8.30
2022-10-23T06:59:48.501Z,9.17
2022-10-23T07:02:51.400Z,9.03
2022-10-23T07:05:53.409Z,8.80
2022-10-23T07:08:55.346Z,8.37
2022-10-23T07:12:15.793Z,7.60
2022-10-23T07:15:23.779Z,7.83
2022-10-23T07:18:30.982Z,7.50
2022-10-23T07:21:51.464Z,7.87
2022-10-23T07:25:06.120Z,7.40
2022-10-23T07:28:12.265Z,7.57
2022-10-23T07:31:14.206Z,6.67
2022-10-23T07:34:47.676Z,6.20
2022-10-23T07:37:59.643Z,5.80
2022-10-23T07:41:05.903Z,6.20
2022-10-23T07:44:09.536Z,5.73
2022-10-23T07:47:11.129Z,5.57
2022-10-23T07:50:18.117Z,5.50
2022-10-23T07:53:20.888Z,5.57
2022-10-23T07:56:29.817Z,5.77
2022-10-23T07:59:50.380Z,5.27
2022-10-23T08:02:55.805Z,5.40
2022-10-23T08:05:58.822Z,4.67
2022-10-23T08:09:03.902Z,4.53
2022-10-23T08:12:09.784Z,4.03
2022-10-23T08:15:11.564Z,3.80
2022-10-23T08:18:33.464Z,3.40
2022-10-23T08:21:35.280Z,3.53
2022-10-23T08:24:37.970Z,3.80
2022-10-23T08:27:39.706Z,3.70
2022-10-23T08:30:41.445Z,3.57
2022-10-23T08:33:43.364Z,3.67
2022-10-23T08:36:45.016Z,3.37
2022-10-23T08:39:50.107Z,3.33
2022-10-23T08:43:03.123Z,3.27
2022-10-23T08:46:09.285Z,3.42
2022-10-23T08:49:50.944Z,3.20
2022-10-23T08:53:11.696Z,2.92
2022-10-23T08:56:32.780Z,3.60
2022-10-23T08:59:39.646Z,2.90
2022-10-23T09:02:51.331Z,2.97
2022-10-23T09:06:11.533Z,3.00
2022-10-23T09:09:15.950Z,2.80
2022-10-23T09:12:21.730Z,3.30
2022-10-23T09:15:29.291Z,2.87
2022-10-23T09:18:31.161Z,2.60
2022-10-23T09:21:32.737Z,2.30
2022-10-23T09:24:34.419Z,2.23
2022-10-23T09:27:36.023Z,2.60
2022-10-23T09:30:39.132Z,2.03
2022-10-23T09:33:40.755Z,2.20
2022-10-23T09:36:48.904Z,2.30
2022-10-23T09:40:01.196Z,2.30
2022-10-23T09:43:04.247Z,2.17
2022-10-23T09:46:07.194Z,2.00
2022-10-23T09:49:19.437Z,2.00
2022-10-23T09:52:33.532Z,1.80
2022-10-23T09:55:35.124Z,2.07
2022-10-23T09:58:38.616Z,1.73
2022-10-23T10:01:48.403Z,1.93
2022-10-23T10:05:40.253Z,2.10
2022-10-23T10:08:53.212Z,1.90
2022-10-23T10:12:02.784Z,3.13
2022-10-23T10:15:18.714Z,2.10
2022-10-23T10:18:32.896Z,2.03
2022-10-23T10:21:41.445Z,1.70
2022-10-23T10:25:01.656Z,1.87
2022-10-23T10:28:06.657Z,1.73
2022-10-23T10:31:19.544Z,1.60
2022-10-23T10:34:39.788Z,1.83
2022-10-23T10:37:42.259Z,1.70
2022-10-23T10:41:04.420Z,1.90
2022-10-23T10:44:08.942Z,1.70
2022-10-23T10:47:25.644Z,1.97
2022-10-23T10:50:42.508Z,1.80
2022-10-23T10:54:19.356Z,2.00
2022-10-23T10:57:42.280Z,1.93
2022-10-23T11:00:45.342Z,2.10
2022-10-23T11:03:52.183Z,2.20
2022-10-23T11:06:54.151Z,2.10
2022-10-23T11:09:58.658Z,1.93
2022-10-23T11:13:00.354Z,1.90
2022-10-23T11:16:05.749Z,1.90
2022-10-23T11:19:34.170Z,2.40
2022-10-23T11:22:37.944Z,2.37
2022-10-23T11:25:51.783Z,2.27
2022-10-23T11:29:16.491Z,2.27
2022-10-23T11:32:36.987Z,1.60
2022-10-23T11:35:38.578Z,2.00
2022-10-23T11:38:40.902Z,1.90
2022-10-23T11:41:48.837Z,1.80
2022-10-23T11:44:50.517Z,1.80
2022-10-23T11:47:58.754Z,1.83
2022-10-23T11:51:02.847Z,1.60
2022-10-23T11:54:16.197Z,1.70
2022-10-23T11:57:17.867Z,1.70
2022-10-23T12:00:22.697Z,1.73
2022-10-23T12:03:26.891Z,1.50
2022-10-23T12:06:29.973Z,1.83
2022-10-23T12:09:40.786Z,1.47
2022-10-23T12:12:43.235Z,1.50
2022-10-23T12:15:54.969Z,1.50
2022-10-23T12:19:11.075Z,1.40
2022-10-23T12:22:12.620Z,1.67
2022-10-23T12:25:25.837Z,1.87
2022-10-23T12:28:46.217Z,2.00
2022-10-23T12:31:48.244Z,1.83
2022-10-23T12:34:49.904Z,1.90
2022-10-23T12:38:10.383Z,2.03
2022-10-23T12:41:15.217Z,1.80
2022-10-23T12:44:19.516Z,2.23
2022-10-23T12:47:21.469Z,1.80
2022-10-23T12:50:24.829Z,2.13
2022-10-23T12:53:26.653Z,2.00
2022-10-23T12:56:35.299Z,2.00
2022-10-23T12:59:38.209Z,2.20
2022-10-23T13:02:39.848Z,2.00
2022-10-23T13:05:41.735Z,2.03
2022-10-23T13:08:45.186Z,2.27
2022-10-23T13:12:08.076Z,1.93
2022-10-23T13:15:10.938Z,2.23
2022-10-23T13:18:14.513Z,2.73
2022-10-23T13:21:26.503Z,3.10
2022-10-23T13:24:29.522Z,1.93
2022-10-23T13:27:33.274Z,2.47
2022-10-23T13:30:38.164Z,2.53
2022-10-23T13:33:44.378Z,2.13
2022-10-23T13:36:53.417Z,2.47
2022-10-23T13:40:03.546Z,2.30
2022-10-23T13:43:13.339Z,2.30
2022-10-23T13:46:15.601Z,2.10
2022-10-23T13:49:17.274Z,2.20
2022-10-23T13:52:22.186Z,2.27
2022-10-23T13:55:24.444Z,2.50
2022-10-23T13:58:26.017Z,2.20
2022-10-23T14:01:28.857Z,2.20
2022-10-23T14:04:30.481Z,2.20
2022-10-23T14:07:32.018Z,2.03
2022-10-23T14:10:33.923Z,2.50
2022-10-23T14:13:35.536Z,2.40
2022-10-23T14:16:37.607Z,2.50
2022-10-23T14:19:39.147Z,2.10
2022-10-23T14:22:40.881Z,2.07
2022-10-23T14:25:43.732Z,2.27
2022-10-23T14:28:45.381Z,2.30
2022-10-23T14:31:46.949Z,2.50
2022-10-23T14:34:52.790Z,1.90
2022-10-23T14:37:54.369Z,2.20
2022-10-23T14:40:55.975Z,2.40
2022-10-23T14:43:57.548Z,2.30
2022-10-23T14:46:59.862Z,2.13
2022-10-23T14:50:01.454Z,2.10
2022-10-23T14:53:03.131Z,3.53
2022-10-23T14:56:05.195Z,2.83
2022-10-23T14:59:07.982Z,4.00
2022-10-23T15:02:10.797Z,4.10
2022-10-23T15:05:12.345Z,4.30
2022-10-23T15:08:13.990Z,4.03
2022-10-23T15:11:15.570Z,4.10
2022-10-23T15:14:17.224Z,3.97
2022-10-23T15:17:18.898Z,3.73
2022-10-23T15:20:20.458Z,4.20
2022-10-23T15:23:22.029Z,4.53
2022-10-23T15:26:25.491Z,3.60
2022-10-23T15:29:27.110Z,3.80
2022-10-23T15:32:28.756Z,5.20
2022-10-23T15:35:30.317Z,3.87
2022-10-23T15:38:31.879Z,4.53
2022-10-23T15:41:38.458Z,4.80
2022-10-23T15:44:40.254Z,5.10
2022-10-23T15:47:42.113Z,5.80
2022-10-23T15:50:44.005Z,6.10
2022-10-23T15:53:45.666Z,6.60
2022-10-23T15:56:48.380Z,6.70
2022-10-23T15:59:51.094Z,5.70
2022-10-23T16:02:52.919Z,5.73
2022-10-23T16:05:54.604Z,7.03
2022-10-23T16:08:56.285Z,8.03
2022-10-23T16:11:57.838Z,6.90
2022-10-23T16:14:59.442Z,9.03
2022-10-23T16:18:01.080Z,9.97
2022-10-23T16:21:02.703Z,11.23
2022-10-23T16:24:05.300Z,14.53
2022-10-23T16:27:06.971Z,15.87
2022-10-23T16:30:09.593Z,21.23
2022-10-23T16:33:11.268Z,29.87
2022-10-23T16:36:12.926Z,18.67
2022-10-23T16:39:33.194Z,14.00
2022-10-23T16:42:53.361Z,14.37
2022-10-23T16:46:07.360Z,18.50
2022-10-23T16:49:09.174Z,11.07
2022-10-23T16:52:11.163Z,14.33
2022-10-23T16:55:12.793Z,15.00
2022-10-23T16:58:15.248Z,19.97
2022-10-23T17:01:38.174Z,20.63
2022-10-23T17:04:40.230Z,20.60
2022-10-23T17:07:41.988Z,19.13
2022-10-23T17:10:45.987Z,16.80
2022-10-23T17:13:58.673Z,16.10
2022-10-23T17:17:02.132Z,16.93
2022-10-23T17:20:04.807Z,13.93
2022-10-23T17:23:06.939Z,15.20
2022-10-23T17:26:10.875Z,17.43
2022-10-23T17:29:16.133Z,19.23
2022-10-23T17:32:18.049Z,16.40
2022-10-23T17:35:19.841Z,15.83
2022-10-23T17:38:21.484Z,14.83
2022-10-23T17:41:23.760Z,14.13
2022-10-23T17:44:25.529Z,13.13
2022-10-23T17:47:28.764Z,13.83
2022-10-23T17:50:31.266Z,12.27
2022-10-23T17:53:38.990Z,12.10
2022-10-23T17:56:45.728Z,13.43
2022-10-23T17:59:47.350Z,9.30
2022-10-23T18:02:48.972Z,10.57
2022-10-23T18:05:51.191Z,12.03
2022-10-23T18:08:53.375Z,7.83
2022-10-23T18:11:55.046Z,8.70
2022-10-23T18:14:56.704Z,7.83
2022-10-23T18:17:58.700Z,9.10
2022-10-23T18:21:01.658Z,8.37
2022-10-23T18:24:04.036Z,7.77
2022-10-23T18:27:05.769Z,6.17
2022-10-23T18:30:07.723Z,5.83
2022-10-23T18:33:09.283Z,9.50
2022-10-23T18:36:14.394Z,6.60
2022-10-23T18:39:16.959Z,7.83
2022-10-23T18:42:18.733Z,8.07
2022-10-23T18:45:20.547Z,9.83
2022-10-23T18:48:23.041Z,9.20
2022-10-23T18:51:25.990Z,9.23
2022-10-23T18:54:29.061Z,8.03
2022-10-23T18:57:30.752Z,7.37
2022-10-23T19:00:32.325Z,6.93
2022-10-23T19:03:34.027Z,5.83
2022-10-23T19:06:36.182Z,5.47
2022-10-23T19:09:40.249Z,5.37
2022-10-23T19:12:42.809Z,4.97
2022-10-23T19:15:44.768Z,5.37
2022-10-23T19:18:49.057Z,6.50
2022-10-23T19:21:50.721Z,5.33
2022-10-23T19:24:58.012Z,5.23
2022-10-23T19:28:00.206Z,6.27
2022-10-23T19:31:02.126Z,6.50
2022-10-23T19:34:03.942Z,5.73
2022-10-23T19:37:05.685Z,5.77
2022-10-23T19:40:08.027Z,5.60
2022-10-23T19:43:10.011Z,6.43
2022-10-23T19:46:12.428Z,5.30
2022-10-23T19:49:14.363Z,4.70
2022-10-23T19:52:15.935Z,6.60
2022-10-23T19:55:17.658Z,4.93
2022-10-23T19:58:19.351Z,5.30
2022-10-23T20:01:22.782Z,5.00
2022-10-23T20:04:24.523Z,4.67
2022-10-23T20:07:26.189Z,5.20
2022-10-23T20:10:28.323Z,4.27
2022-10-23T20:13:30.306Z,5.27
2022-10-23T20:16:36.121Z,5.70
2022-10-23T20:19:37.909Z,5.83
2022-10-23T20:22:41.798Z,5.90
2022-10-23T20:25:45.582Z,4.33
2022-10-23T20:28:48.514Z,5.10
2022-10-23T20:31:50.190Z,6.57
2022-10-23T20:34:52.756Z,6.30
2022-10-23T20:37:54.366Z,6.23
2022-10-23T20:40:57.080Z,7.03
2022-10-23T20:43:58.693Z,7.77
2022-10-23T20:47:00.247Z,6.40
2022-10-23T20:50:01.818Z,6.40
2022-10-23T20:53:03.554Z,5.37
2022-10-23T20:56:09.242Z,4.87
2022-10-23T20:59:12.616Z,4.37
2022-10-23T21:02:14.254Z,5.37
2022-10-23T21:05:16.000Z,5.53
2022-10-23T21:08:17.590Z,4.90
2022-10-23T21:11:19.175Z,4.70
2022-10-23T21:14:20.758Z,4.93
2022-10-23T21:17:22.384Z,4.67
2022-10-23T21:20:23.959Z,4.00
2022-10-23T21:23:25.536Z,4.50
2022-10-23T21:26:28.234Z,4.73
2022-10-23T21:29:29.841Z,4.60
2022-10-23T21:32:31.382Z,4.97
2022-10-23T21:35:33.030Z,5.30
2022-10-23T21:38:36.026Z,5.10
2022-10-23T21:41:38.136Z,4.90
2022-10-23T21:44:39.759Z,4.70
2022-10-23T21:47:41.938Z,5.23
2022-10-23T21:50:43.737Z,5.00
2022-10-23T21:53:45.380Z,4.60
2022-10-23T21:56:48.194Z,4.43
2022-10-23T21:59:49.769Z,4.37
2022-10-23T22:02:51.323Z,4.70
2022-10-23T22:05:52.899Z,4.60
2022-10-23T22:08:55.325Z,3.90
2022-10-23T22:11:56.922Z,4.20
2022-10-23T22:14:58.577Z,3.60
2022-10-23T22:18:00.518Z,3.87
2022-10-23T22:21:03.038Z,3.33
2022-10-23T22:27:11.117Z,3.37
2022-10-23T22:30:12.896Z,3.53
2022-10-23T22:33:14.446Z,3.30
2022-10-23T22:36:16.085Z,3.40
2022-10-23T22:39:17.678Z,3.10
2022-10-23T22:42:19.832Z,2.83
2022-10-23T22:45:21.441Z,2.87
2022-10-23T22:48:23.000Z,3.07
2022-10-23T22:51:25.541Z,3.40
2022-10-23T22:54:27.149Z,3.40
2022-10-23T22:57:28.714Z,3.20
2022-10-23T23:00:30.256Z,3.27
2022-10-23T23:03:31.915Z,3.03
2022-10-23T23:06:34.768Z,3.20
2022-10-23T23:09:40.471Z,2.73
2022-10-23T23:12:42.044Z,2.97
2022-10-23T23:15:43.662Z,2.80
2022-10-23T23:18:45.249Z,2.90
2022-10-23T23:21:46.853Z,2.80
2022-10-23T23:24:48.411Z,3.33
2022-10-23T23:27:49.953Z,3.27
2022-10-23T23:31:01.855Z,3.00
2022-10-23T23:34:03.491Z,2.80
2022-10-23T23:37:05.050Z,3.00
2022-10-23T23:40:07.074Z,3.00
2022-10-23T23:43:08.657Z,2.57
2022-10-23T23:46:10.652Z,2.60
2022-10-23T23:49:12.245Z,2.63
2022-10-23T23:52:13.878Z,2.80
2022-10-23T23:55:15.596Z,2.87
2022-10-23T23:58:17.452Z,2.60
